Time;durP1;ratioP1;P1;durP2;ratioP2;P2;SDS_P1;SDS_P2;PMS_P1;PMS_P2;Temp;Humidity;BMP_temperature;BMP_pressure;BME280_temperature;BME280_humidity;BME280_pressure;Samples;Min_cycle;Max_cycle;Signal;HPM_P1;HPM_P2
2022/03/31 00:00:46;;;;;;;0.00;0.00;;;;;;;;;;5045202;28;20029;-75
2022/03/31 00:03:14;;;;;;;0.00;0.00;;;;;;;;;;5034722;28;20025;-75
2022/03/31 00:05:40;;;;;;;37.50;5.93;;;;;;;;;;5035257;28;20035;-75
2022/03/31 00:08:13;;;;;;;0.00;0.00;;;;;;;;;;5053087;28;20037;-75
2022/03/31 00:10:40;;;;;;;1.70;1.67;;;;;;;;;;5072594;28;20036;-75
2022/03/31 00:13:07;;;;;;;0.00;0.00;;;;;;;;;;5059383;28;20033;-75
2022/03/31 00:15:34;;;;;;;0.00;0.00;;;;;;;;;;5058281;28;20078;-75
2022/03/31 00:18:01;;;;;;;0.10;0.10;;;;;;;;;;5072420;28;20042;-75
2022/03/31 00:20:28;;;;;;;0.00;0.00;;;;;;;;;;5055197;28;20075;-75
2022/03/31 00:22:55;;;;;;;0.22;0.22;;;;;;;;;;5069068;28;20028;-75
2022/03/31 00:25:23;;;;;;;0.10;0.10;;;;;;;;;;5076994;28;20541;-75
2022/03/31 00:27:50;;;;;;;3.60;3.20;;;;;;;;;;5092892;28;20089;-75
2022/03/31 00:30:16;;;;;;;0.03;0.03;;;;;;;;;;5092966;28;20020;-76
2022/03/31 00:32:42;;;;;;;0.00;0.00;;;;;;;;;;5074866;28;20024;-76
2022/03/31 00:35:10;;;;;;;8.00;5.90;;;;;;;;;;5074622;28;20483;-75
2022/03/31 00:37:37;;;;;;;0.10;0.10;;;;;;;;;;5092932;28;20480;-76
2022/03/31 00:40:04;;;;;;;1.17;1.17;;;;;;;;;;5073391;28;20063;-75
2022/03/31 00:42:31;;;;;;;0.00;0.00;;;;;;;;;;5067463;28;20171;-75
2022/03/31 00:44:57;;;;;;;0.00;0.00;;;;;;;;;;5054637;28;20067;-75
2022/03/31 00:47:23;;;;;;;0.00;0.00;;;;;;;;;;5072617;28;20133;-75
2022/03/31 00:49:49;;;;;;;0.00;0.00;;;;;;;;;;5074096;28;20060;-75
2022/03/31 00:52:16;;;;;;;0.10;0.10;;;;;;;;;;5049297;28;20036;-75
2022/03/31 00:54:43;;;;;;;0.00;0.00;;;;;;;;;;5054838;28;20357;-75
2022/03/31 00:57:10;;;;;;;0.00;0.00;;;;;;;;;;5054525;28;20421;-74
2022/03/31 00:59:39;;;;;;;1.55;1.45;;;;;;;;;;5078446;28;20044;-77
2022/03/31 01:02:08;;;;;;;0.30;0.30;;;;;;;;;;5070059;28;20033;-74
2022/03/31 01:04:34;;;;;;;0.00;0.00;;;;;;;;;;5053930;28;20036;-74
2022/03/31 01:07:01;;;;;;;0.10;0.10;;;;;;;;;;5088242;28;20028;-74
2022/03/31 01:09:27;;;;;;;0.00;0.00;;;;;;;;;;5074290;28;20031;-74
2022/03/31 01:11:54;;;;;;;6.45;1.45;;;;;;;;;;5060501;28;20043;-75
2022/03/31 01:14:20;;;;;;;1.35;1.30;;;;;;;;;;5088812;28;20074;-75
2022/03/31 01:16:47;;;;;;;0.00;0.00;;;;;;;;;;5092273;28;20028;-75
2022/03/31 01:19:13;;;;;;;0.00;0.00;;;;;;;;;;5070824;28;20036;-74
2022/03/31 01:21:40;;;;;;;10.43;2.55;;;;;;;;;;5091124;28;20039;-75
2022/03/31 01:24:07;;;;;;;0.00;0.00;;;;;;;;;;5070829;28;20112;-75
2022/03/31 01:26:34;;;;;;;0.03;0.03;;;;;;;;;;5074190;28;20415;-75
2022/03/31 01:29:01;;;;;;;2.00;1.90;;;;;;;;;;5076011;28;20419;-73
2022/03/31 01:31:27;;;;;;;0.03;0.03;;;;;;;;;;5065480;28;20036;-73
2022/03/31 01:33:54;;;;;;;0.00;0.00;;;;;;;;;;5072090;28;20528;-73
2022/03/31 01:36:20;;;;;;;0.00;0.00;;;;;;;;;;5050981;28;20159;-73
2022/03/31 01:38:47;;;;;;;4.30;3.97;;;;;;;;;;5052866;28;20040;-74
2022/03/31 01:41:13;;;;;;;0.00;0.00;;;;;;;;;;5056602;28;20142;-73
2022/03/31 01:43:40;;;;;;;0.00;0.00;;;;;;;;;;5070631;28;20044;-74
2022/03/31 01:46:08;;;;;;;0.52;0.52;;;;;;;;;;5052557;28;20032;-76
2022/03/31 01:48:35;;;;;;;0.20;0.20;;;;;;;;;;5070598;28;20021;-73
2022/03/31 01:51:04;;;;;;;0.20;0.20;;;;;;;;;;5054060;28;20488;-74
2022/03/31 01:53:31;;;;;;;0.50;0.50;;;;;;;;;;5057232;28;20040;-73
2022/03/31 01:55:58;;;;;;;0.00;0.00;;;;;;;;;;5075183;28;20024;-74
2022/03/31 01:58:24;;;;;;;1.00;0.98;;;;;;;;;;5066350;28;20028;-74
2022/03/31 02:00:51;;;;;;;0.47;0.47;;;;;;;;;;5056460;28;20028;-74
2022/03/31 02:03:18;;;;;;;0.00;0.00;;;;;;;;;;5075754;28;20016;-74
2022/03/31 02:05:44;;;;;;;3.95;3.70;;;;;;;;;;5058047;28;20017;-74
2022/03/31 02:08:10;;;;;;;0.57;0.57;;;;;;;;;;5074741;28;20550;-74
2022/03/31 02:10:37;;;;;;;0.00;0.00;;;;;;;;;;5075354;28;20116;-74
2022/03/31 02:13:03;;;;;;;0.65;0.65;;;;;;;;;;5045880;28;20082;-74
2022/03/31 02:15:30;;;;;;;0.20;0.20;;;;;;;;;;5057270;28;20045;-73
2022/03/31 02:17:56;;;;;;;0.20;0.20;;;;;;;;;;5037182;28;20032;-75
2022/03/31 02:20:23;;;;;;;0.00;0.00;;;;;;;;;;5045869;28;20009;-74
2022/03/31 02:22:49;;;;;;;2.00;0.77;;;;;;;;;;5066850;28;20298;-75
2022/03/31 02:25:16;;;;;;;0.40;0.40;;;;;;;;;;5038376;28;20021;-73
2022/03/31 02:27:42;;;;;;;0.00;0.00;;;;;;;;;;5052052;28;20029;-74
2022/03/31 02:30:09;;;;;;;0.15;0.15;;;;;;;;;;5052818;28;20028;-73
2022/03/31 02:32:37;;;;;;;4.05;3.75;;;;;;;;;;5047830;28;20025;-74
2022/03/31 02:35:04;;;;;;;0.20;0.17;;;;;;;;;;5054011;28;20040;-75
2022/03/31 02:37:31;;;;;;;3.83;1.75;;;;;;;;;;5055804;28;20032;-74
2022/03/31 02:39:57;;;;;;;3.50;3.40;;;;;;;;;;5039257;28;20022;-73
2022/03/31 02:42:24;;;;;;;0.28;0.25;;;;;;;;;;5037733;28;20112;-73
2022/03/31 02:44:50;;;;;;;0.55;0.55;;;;;;;;;;5039044;28;20039;-73
2022/03/31 02:47:16;;;;;;;9.57;7.53;;;;;;;;;;5046624;28;20608;-73
2022/03/31 02:49:43;;;;;;;7.97;4.93;;;;;;;;;;5039756;28;20032;-74
2022/03/31 02:52:10;;;;;;;8.25;3.35;;;;;;;;;;5047944;28;20056;-75
2022/03/31 02:57:21;;;;;;;4.85;2.58;;;;;;;;;;5052167;28;20094;-74
2022/03/31 02:59:48;;;;;;;11.55;5.72;;;;;;;;;;5047635;28;21731;-75
2022/03/31 03:02:14;;;;;;;3.33;3.03;;;;;;;;;;5052414;28;20028;-75
2022/03/31 03:04:41;;;;;;;10.45;3.67;;;;;;;;;;5025555;28;20471;-74
2022/03/31 03:07:07;;;;;;;4.88;1.73;;;;;;;;;;5033482;28;20021;-73
2022/03/31 03:09:33;;;;;;;3.92;3.83;;;;;;;;;;5045375;28;20574;-74
2022/03/31 03:12:00;;;;;;;4.78;4.35;;;;;;;;;;5042480;28;20043;-75
2022/03/31 03:14:26;;;;;;;12.95;2.83;;;;;;;;;;5055751;28;20051;-74
2022/03/31 03:16:52;;;;;;;3.20;1.85;;;;;;;;;;5047582;28;20032;-74
2022/03/31 03:19:19;;;;;;;3.35;3.15;;;;;;;;;;5050479;28;20502;-76
2022/03/31 03:21:45;;;;;;;4.25;3.70;;;;;;;;;;5065947;28;20036;-76
2022/03/31 03:24:11;;;;;;;9.77;9.30;;;;;;;;;;5053528;28;20051;-76
2022/03/31 03:26:37;;;;;;;11.40;4.57;;;;;;;;;;5068455;28;20039;-76
2022/03/31 03:29:04;;;;;;;2.35;1.25;;;;;;;;;;5068303;28;20032;-76
2022/03/31 03:31:30;;;;;;;25.27;9.63;;;;;;;;;;5068514;28;20047;-77
2022/03/31 03:33:56;;;;;;;7.57;3.65;;;;;;;;;;5059363;28;20473;-77
2022/03/31 03:36:22;;;;;;;5.97;5.45;;;;;;;;;;5063503;28;20197;-77
2022/03/31 03:38:49;;;;;;;9.88;7.85;;;;;;;;;;5051165;28;20480;-77
2022/03/31 03:41:15;;;;;;;8.90;3.25;;;;;;;;;;5064944;28;20107;-78
2022/03/31 03:43:42;;;;;;;24.02;9.02;;;;;;;;;;5069869;28;20027;-77
2022/03/31 03:46:08;;;;;;;3.30;2.45;;;;;;;;;;5051422;28;20030;-76
2022/03/31 03:48:35;;;;;;;6.72;5.18;;;;;;;;;;5070510;28;20056;-75
2022/03/31 03:51:01;;;;;;;14.52;8.05;;;;;;;;;;5069363;28;20484;-76
2022/03/31 03:53:28;;;;;;;2.40;2.30;;;;;;;;;;5070067;28;20028;-75
2022/03/31 03:55:54;;;;;;;3.45;1.35;;;;;;;;;;5051726;28;20037;-76
2022/03/31 03:58:20;;;;;;;8.77;8.02;;;;;;;;;;5050472;28;20028;-75
2022/03/31 04:00:47;;;;;;;7.13;5.18;;;;;;;;;;5051011;28;20056;-76
2022/03/31 04:03:13;;;;;;;35.03;8.25;;;;;;;;;;5067464;28;20423;-77
2022/03/31 04:05:39;;;;;;;14.48;7.40;;;;;;;;;;5051197;28;20024;-76
2022/03/31 04:08:06;;;;;;;3.70;2.67;;;;;;;;;;5067551;28;20047;-77
2022/03/31 04:10:35;;;;;;;7.05;4.78;;;;;;;;;;5069701;28;20062;-77
2022/03/31 04:13:02;;;;;;;12.68;6.75;;;;;;;;;;5051304;28;20028;-76
2022/03/31 04:15:28;;;;;;;10.15;9.30;;;;;;;;;;5048901;28;20029;-74
2022/03/31 04:17:55;;;;;;;3.63;3.08;;;;;;;;;;5050121;28;20032;-75
2022/03/31 04:20:21;;;;;;;5.90;1.55;;;;;;;;;;5042741;28;20057;-76
2022/03/31 04:22:47;;;;;;;2.83;2.53;;;;;;;;;;5062594;28;20499;-75
2022/03/31 04:25:14;;;;;;;4.53;3.25;;;;;;;;;;5066722;28;20020;-75
2022/03/31 04:27:40;;;;;;;4.30;4.05;;;;;;;;;;5066170;28;20047;-73
2022/03/31 04:30:08;;;;;;;6.43;3.13;;;;;;;;;;5062719;28;20029;-76
2022/03/31 04:32:34;;;;;;;3.50;2.78;;;;;;;;;;5067680;28;20032;-75
2022/03/31 04:35:04;;;;;;;16.42;4.07;;;;;;;;;;5044450;28;20504;-74
2022/03/31 04:37:30;;;;;;;4.28;2.97;;;;;;;;;;5069124;28;20155;-75
2022/03/31 04:40:00;;;;;;;1.33;1.23;;;;;;;;;;5050271;28;20032;-74
2022/03/31 04:42:26;;;;;;;1.40;1.30;;;;;;;;;;5046083;28;20035;-73
2022/03/31 04:44:52;;;;;;;4.22;3.83;;;;;;;;;;5066129;28;20104;-74
2022/03/31 04:47:19;;;;;;;6.32;5.68;;;;;;;;;;5047866;28;20043;-76
2022/03/31 04:49:45;;;;;;;1.27;1.17;;;;;;;;;;5079463;28;20040;-73
2022/03/31 04:52:11;;;;;;;16.00;13.23;;;;;;;;;;5064525;28;20135;-72
2022/03/31 04:54:43;;;;;;;8.93;8.40;;;;;;;;;;5080728;28;20074;-75
2022/03/31 04:57:11;;;;;;;11.73;4.53;;;;;;;;;;5083018;28;20107;-74
2022/03/31 04:59:37;;;;;;;27.95;7.85;;;;;;;;;;5059698;28;20029;-75
2022/03/31 05:02:04;;;;;;;6.68;3.95;;;;;;;;;;5073602;28;20423;-73
2022/03/31 05:04:30;;;;;;;6.75;3.80;;;;;;;;;;5067350;28;20066;-73
2022/03/31 05:06:57;;;;;;;9.38;4.55;;;;;;;;;;5072380;28;20031;-73
2022/03/31 05:09:23;;;;;;;2.45;2.15;;;;;;;;;;5070895;28;20144;-72
2022/03/31 05:11:49;;;;;;;7.00;5.45;;;;;;;;;;5078867;28;20072;-73
2022/03/31 05:14:15;;;;;;;2.30;2.10;;;;;;;;;;5045560;28;20062;-72
2022/03/31 05:16:42;;;;;;;3.17;0.98;;;;;;;;;;5063947;28;20084;-74
2022/03/31 05:19:08;;;;;;;11.10;3.88;;;;;;;;;;5062297;28;21882;-73
2022/03/31 05:21:34;;;;;;;12.60;3.85;;;;;;;;;;5047126;28;20031;-74
2022/03/31 05:24:01;;;;;;;9.18;8.35;;;;;;;;;;5065859;28;20028;-74
2022/03/31 05:26:27;;;;;;;2.88;2.65;;;;;;;;;;5052639;28;20097;-73
2022/03/31 05:28:56;;;;;;;2.55;1.83;;;;;;;;;;5055001;28;20031;-74
2022/03/31 05:31:23;;;;;;;2.72;1.70;;;;;;;;;;5072723;28;20539;-73
2022/03/31 05:33:49;;;;;;;27.33;6.20;;;;;;;;;;5064727;28;20028;-74
2022/03/31 05:36:15;;;;;;;6.47;4.82;;;;;;;;;;5080617;28;20016;-75
2022/03/31 05:38:41;;;;;;;6.00;3.50;;;;;;;;;;5072757;28;20035;-75
2022/03/31 05:41:08;;;;;;;3.58;3.38;;;;;;;;;;5071152;28;20050;-75
2022/03/31 05:43:34;;;;;;;0.45;0.45;;;;;;;;;;5054626;28;20029;-76
2022/03/31 05:46:03;;;;;;;2.97;1.70;;;;;;;;;;5072110;28;20036;-77
2022/03/31 05:48:29;;;;;;;5.00;3.20;;;;;;;;;;5072576;28;20024;-75
2022/03/31 05:50:56;;;;;;;13.63;4.60;;;;;;;;;;5047135;28;20021;-75
2022/03/31 05:53:22;;;;;;;8.65;4.45;;;;;;;;;;5070901;28;20221;-75
2022/03/31 05:55:49;;;;;;;7.78;5.75;;;;;;;;;;5052001;28;20029;-75
2022/03/31 05:58:15;;;;;;;3.13;2.42;;;;;;;;;;5068451;28;20135;-74
2022/03/31 06:00:42;;;;;;;22.77;7.63;;;;;;;;;;5050925;28;20040;-75
2022/03/31 06:03:08;;;;;;;5.53;2.53;;;;;;;;;;5074407;28;20118;-74
2022/03/31 06:05:34;;;;;;;11.07;3.95;;;;;;;;;;5072299;28;20026;-74
2022/03/31 06:08:00;;;;;;;17.38;6.15;;;;;;;;;;5048676;28;20049;-73
2022/03/31 06:10:29;;;;;;;1.35;1.33;;;;;;;;;;5056651;28;20068;-74
2022/03/31 06:12:55;;;;;;;2.45;2.30;;;;;;;;;;5069360;28;20027;-75
2022/03/31 06:15:22;;;;;;;1.15;1.05;;;;;;;;;;5052402;28;20040;-73
2022/03/31 06:17:48;;;;;;;0.90;0.90;;;;;;;;;;5073289;28;20039;-73
2022/03/31 06:20:14;;;;;;;0.38;0.38;;;;;;;;;;5072385;28;20484;-73
2022/03/31 06:22:41;;;;;;;5.22;1.60;;;;;;;;;;5072802;28;20075;-75
2022/03/31 06:25:10;;;;;;;0.25;0.25;;;;;;;;;;5053052;28;20020;-74
2022/03/31 06:27:37;;;;;;;0.05;0.05;;;;;;;;;;5060521;28;20712;-74
2022/03/31 06:30:03;;;;;;;7.82;4.50;;;;;;;;;;5074517;28;20078;-74
2022/03/31 06:32:29;;;;;;;2.28;1.33;;;;;;;;;;5057051;28;20439;-74
2022/03/31 06:34:56;;;;;;;5.53;4.78;;;;;;;;;;5052696;28;20024;-74
2022/03/31 06:37:22;;;;;;;0.73;0.73;;;;;;;;;;5072316;28;20479;-74
2022/03/31 06:39:48;;;;;;;0.55;0.55;;;;;;;;;;5068891;28;20527;-75
2022/03/31 06:42:14;;;;;;;0.55;0.47;;;;;;;;;;5068918;28;20419;-74
2022/03/31 06:44:41;;;;;;;1.60;0.43;;;;;;;;;;5051134;28;20044;-74
2022/03/31 06:47:07;;;;;;;8.25;7.75;;;;;;;;;;5051062;28;20119;-74
2022/03/31 06:49:36;;;;;;;3.50;2.58;;;;;;;;;;5053363;28;20037;-75
2022/03/31 06:52:03;;;;;;;6.13;3.92;;;;;;;;;;5070590;28;20488;-74
2022/03/31 06:54:30;;;;;;;0.20;0.20;;;;;;;;;;5071174;28;20052;-75
2022/03/31 06:56:57;;;;;;;4.63;4.28;;;;;;;;;;5068535;28;20082;-75
2022/03/31 06:59:23;;;;;;;3.15;2.88;;;;;;;;;;5072278;28;20043;-74
2022/03/31 07:01:50;;;;;;;8.68;4.28;;;;;;;;;;5072926;28;20521;-73
2022/03/31 07:04:16;;;;;;;4.07;3.78;;;;;;;;;;5069542;28;20107;-73
2022/03/31 07:06:43;;;;;;;0.32;0.32;;;;;;;;;;5068444;28;20371;-73
2022/03/31 07:09:09;;;;;;;0.60;0.13;;;;;;;;;;5068432;28;20037;-74
2022/03/31 07:11:35;;;;;;;27.58;6.95;;;;;;;;;;5051569;28;20024;-74
2022/03/31 07:14:02;;;;;;;6.60;6.15;;;;;;;;;;5044950;28;20043;-73
2022/03/31 07:16:30;;;;;;;2.85;2.03;;;;;;;;;;5052863;28;20029;-73
2022/03/31 07:18:57;;;;;;;16.98;3.85;;;;;;;;;;5070035;28;20514;-75
2022/03/31 07:21:24;;;;;;;0.20;0.20;;;;;;;;;;5069411;28;20498;-73
2022/03/31 07:23:53;;;;;;;0.00;0.00;;;;;;;;;;5064292;28;20028;-73
2022/03/31 07:26:22;;;;;;;1.35;1.33;;;;;;;;;;5067301;28;20021;-73
2022/03/31 07:28:49;;;;;;;2.88;2.72;;;;;;;;;;5068431;28;20642;-73
2022/03/31 07:31:15;;;;;;;0.70;0.30;;;;;;;;;;5049951;28;20165;-74
2022/03/31 07:33:42;;;;;;;4.38;4.13;;;;;;;;;;5050260;28;20058;-74
2022/03/31 07:36:09;;;;;;;0.82;0.82;;;;;;;;;;5053857;28;20033;-73
2022/03/31 07:38:35;;;;;;;6.70;5.75;;;;;;;;;;5049876;28;20031;-74
2022/03/31 07:41:01;;;;;;;2.28;1.35;;;;;;;;;;5055482;28;20120;-74
2022/03/31 07:43:28;;;;;;;4.47;2.65;;;;;;;;;;5051843;28;20024;-73
2022/03/31 07:45:55;;;;;;;5.03;3.30;;;;;;;;;;5047869;28;20057;-75
2022/03/31 07:48:21;;;;;;;4.57;2.08;;;;;;;;;;5066345;28;20431;-76
2022/03/31 07:50:47;;;;;;;1.60;1.52;;;;;;;;;;5067165;28;20039;-76
2022/03/31 07:53:16;;;;;;;8.10;7.22;;;;;;;;;;5050307;28;20494;-76
2022/03/31 07:55:42;;;;;;;3.88;3.67;;;;;;;;;;5046602;28;20147;-76
2022/03/31 07:58:09;;;;;;;0.75;0.40;;;;;;;;;;5052599;28;20269;-76
2022/03/31 08:00:35;;;;;;;0.30;0.30;;;;;;;;;;5069593;28;20035;-76
2022/03/31 08:03:01;;;;;;;3.30;3.03;;;;;;;;;;5092484;28;20027;-76
2022/03/31 08:05:30;;;;;;;0.52;0.17;;;;;;;;;;5078819;28;20032;-77
2022/03/31 08:07:57;;;;;;;0.52;0.52;;;;;;;;;;5072548;28;20031;-77
2022/03/31 08:10:25;;;;;;;1.88;1.75;;;;;;;;;;5073806;28;20380;-76
2022/03/31 08:12:52;;;;;;;10.48;1.98;;;;;;;;;;5048555;28;20119;-76
2022/03/31 08:15:19;;;;;;;3.80;3.60;;;;;;;;;;5042662;28;20049;-74
2022/03/31 08:17:46;;;;;;;0.30;0.30;;;;;;;;;;5065986;28;20456;-76
2022/03/31 08:20:13;;;;;;;0.70;0.70;;;;;;;;;;5062932;28;20420;-75
2022/03/31 08:22:40;;;;;;;2.25;2.15;;;;;;;;;;5045183;28;20028;-76
2022/03/31 08:25:10;;;;;;;3.30;1.75;;;;;;;;;;5049396;28;20100;-77
2022/03/31 08:27:37;;;;;;;1.85;1.55;;;;;;;;;;5067171;28;20633;-77
2022/03/31 08:30:04;;;;;;;7.93;7.32;;;;;;;;;;5063367;28;20052;-78
2022/03/31 08:32:34;;;;;;;0.05;0.05;;;;;;;;;;5048300;28;20074;-76
2022/03/31 08:35:02;;;;;;;0.95;0.95;;;;;;;;;;5048806;28;20033;-74
2022/03/31 08:37:28;;;;;;;0.45;0.45;;;;;;;;;;5068697;28;20040;-75
2022/03/31 08:39:54;;;;;;;2.28;2.17;;;;;;;;;;5065999;28;20029;-73
2022/03/31 08:42:21;;;;;;;4.50;3.13;;;;;;;;;;5048230;28;20036;-75
2022/03/31 08:44:50;;;;;;;0.88;0.80;;;;;;;;;;5046127;28;20058;-74
2022/03/31 08:47:17;;;;;;;4.28;2.10;;;;;;;;;;5069707;28;20060;-75
2022/03/31 08:49:44;;;;;;;1.15;1.15;;;;;;;;;;5046407;28;20425;-76
2022/03/31 08:52:10;;;;;;;0.25;0.25;;;;;;;;;;5049894;28;20043;-75
2022/03/31 08:54:37;;;;;;;0.00;0.00;;;;;;;;;;5067118;28;20483;-75
2022/03/31 08:57:05;;;;;;;1.52;1.02;;;;;;;;;;5065882;28;20057;-75
2022/03/31 08:59:31;;;;;;;2.13;1.77;;;;;;;;;;5066987;28;20073;-75
2022/03/31 09:01:58;;;;;;;2.65;2.47;;;;;;;;;;5061450;28;20020;-75
2022/03/31 09:04:28;;;;;;;0.20;0.20;;;;;;;;;;5064696;28;20023;-74
2022/03/31 09:07:05;;;;;;;0.03;0.03;;;;;;;;;;5062254;28;20035;-76
2022/03/31 09:09:32;;;;;;;4.30;2.95;;;;;;;;;;5066046;28;20025;-76
2022/03/31 09:11:58;;;;;;;3.05;2.85;;;;;;;;;;5065416;28;20077;-77
2022/03/31 09:14:32;;;;;;;4.97;4.65;;;;;;;;;;5066921;28;20053;-77
2022/03/31 09:16:58;;;;;;;0.10;0.03;;;;;;;;;;5068385;28;20025;-78
2022/03/31 09:19:25;;;;;;;1.45;1.27;;;;;;;;;;5064468;28;20048;-76
2022/03/31 09:21:57;;;;;;;2.67;1.88;;;;;;;;;;5064584;28;20054;-78
2022/03/31 09:24:26;;;;;;;24.30;3.33;;;;;;;;;;5063490;28;20530;-76
2022/03/31 09:26:53;;;;;;;5.55;3.78;;;;;;;;;;5047009;28;20071;-77
2022/03/31 09:29:23;;;;;;;2.42;0.93;;;;;;;;;;5066402;28;20028;-76
2022/03/31 09:31:51;;;;;;;1.30;1.00;;;;;;;;;;5042642;28;20170;-75
2022/03/31 09:34:18;;;;;;;0.88;0.88;;;;;;;;;;5061550;28;20028;-75
2022/03/31 09:36:49;;;;;;;0.43;0.30;;;;;;;;;;5044607;28;20052;-75
2022/03/31 09:39:17;;;;;;;0.00;0.00;;;;;;;;;;5067659;28;20058;-77
2022/03/31 09:41:47;;;;;;;0.10;0.10;;;;;;;;;;5065023;28;20452;-74
2022/03/31 09:44:18;;;;;;;0.17;0.17;;;;;;;;;;5049138;28;20043;-74
2022/03/31 09:46:45;;;;;;;0.10;0.10;;;;;;;;;;5064691;28;20029;-74
2022/03/31 09:49:11;;;;;;;1.17;1.17;;;;;;;;;;5063371;28;20495;-74
2022/03/31 09:51:38;;;;;;;0.93;0.73;;;;;;;;;;5051285;28;20117;-74
2022/03/31 09:54:04;;;;;;;0.68;0.25;;;;;;;;;;5048747;28;20039;-74
2022/03/31 09:56:34;;;;;;;0.77;0.77;;;;;;;;;;5065856;28;20043;-75
2022/03/31 09:59:02;;;;;;;0.00;0.00;;;;;;;;;;5065302;28;20027;-73
2022/03/31 10:01:29;;;;;;;0.00;0.00;;;;;;;;;;5064519;28;20016;-75
2022/03/31 10:03:56;;;;;;;7.10;4.85;;;;;;;;;;5065557;28;20025;-73
2022/03/31 10:06:24;;;;;;;0.00;0.00;;;;;;;;;;5070209;28;20020;-73
2022/03/31 10:08:51;;;;;;;0.60;0.38;;;;;;;;;;5069244;28;20074;-75
2022/03/31 10:11:22;;;;;;;0.00;0.00;;;;;;;;;;5051034;28;20499;-75
2022/03/31 10:13:51;;;;;;;0.00;0.00;;;;;;;;;;5069671;28;20431;-75
2022/03/31 10:16:20;;;;;;;0.00;0.00;;;;;;;;;;5063598;28;20039;-72
2022/03/31 10:18:47;;;;;;;0.98;0.70;;;;;;;;;;5069860;28;20024;-74
2022/03/31 10:21:15;;;;;;;0.13;0.13;;;;;;;;;;5067891;28;20028;-72
2022/03/31 10:26:34;;;;;;;3.10;1.67;;;;;;;;;;5066295;28;20086;-72
2022/03/31 10:29:02;;;;;;;2.05;1.95;;;;;;;;;;5053268;28;20028;-72
2022/03/31 10:31:38;;;;;;;2.08;0.73;;;;;;;;;;5047826;28;20040;-73
2022/03/31 10:34:05;;;;;;;4.75;2.08;;;;;;;;;;5044283;28;20036;-74
2022/03/31 10:36:38;;;;;;;0.57;0.57;;;;;;;;;;5065493;28;20081;-74
2022/03/31 10:39:07;;;;;;;0.00;0.00;;;;;;;;;;5052260;28;20113;-73
2022/03/31 10:41:35;;;;;;;1.10;1.08;;;;;;;;;;5070596;28;20029;-76
2022/03/31 10:44:13;;;;;;;0.00;0.00;;;;;;;;;;5066660;28;20035;-73
2022/03/31 10:46:40;;;;;;;0.80;0.80;;;;;;;;;;5056228;28;20024;-74
2022/03/31 10:49:12;;;;;;;0.00;0.00;;;;;;;;;;5067299;28;20064;-74
2022/03/31 10:51:41;;;;;;;0.22;0.22;;;;;;;;;;5066671;28;20008;-72
2022/03/31 10:54:11;;;;;;;0.00;0.00;;;;;;;;;;5062023;28;20127;-74
2022/03/31 10:56:38;;;;;;;0.00;0.00;;;;;;;;;;5070642;28;20028;-73
2022/03/31 10:59:06;;;;;;;0.10;0.10;;;;;;;;;;5048506;28;20020;-72
2022/03/31 11:01:34;;;;;;;0.00;0.00;;;;;;;;;;5070888;28;20476;-74
2022/03/31 11:04:01;;;;;;;0.30;0.30;;;;;;;;;;5046556;28;20035;-71
2022/03/31 11:06:29;;;;;;;0.30;0.22;;;;;;;;;;5066441;28;20488;-71
2022/03/31 11:08:55;;;;;;;0.95;0.95;;;;;;;;;;5050987;28;20040;-74
2022/03/31 11:11:28;;;;;;;0.00;0.00;;;;;;;;;;5062107;28;20431;-72
2022/03/31 11:13:55;;;;;;;0.00;0.00;;;;;;;;;;5052274;28;20044;-73
2022/03/31 11:16:22;;;;;;;0.45;0.30;;;;;;;;;;5049710;28;20431;-71
2022/03/31 11:18:55;;;;;;;0.65;0.63;;;;;;;;;;5051602;28;20041;-71
2022/03/31 11:21:24;;;;;;;4.95;2.30;;;;;;;;;;5052478;28;20484;-71
2022/03/31 11:23:53;;;;;;;0.00;0.00;;;;;;;;;;5066515;28;20081;-72
2022/03/31 11:26:30;;;;;;;0.55;0.32;;;;;;;;;;5048381;28;20469;-72
2022/03/31 11:28:57;;;;;;;0.82;0.82;;;;;;;;;;5070789;28;20042;-71
2022/03/31 11:31:23;;;;;;;0.35;0.35;;;;;;;;;;5048929;28;20123;-73
2022/03/31 11:33:50;;;;;;;0.00;0.00;;;;;;;;;;5068830;28;20031;-75
2022/03/31 11:36:20;;;;;;;0.03;0.03;;;;;;;;;;5070303;28;20387;-75
2022/03/31 11:38:56;;;;;;;0.20;0.20;;;;;;;;;;5054471;28;20664;-72
2022/03/31 11:41:23;;;;;;;0.00;0.00;;;;;;;;;;5047938;28;20021;-71
2022/03/31 11:43:49;;;;;;;0.00;0.00;;;;;;;;;;5049173;28;20017;-72
2022/03/31 11:46:16;;;;;;;0.00;0.00;;;;;;;;;;5062032;28;20452;-72
2022/03/31 11:48:45;;;;;;;0.00;0.00;;;;;;;;;;5060433;28;20023;-72
2022/03/31 11:51:13;;;;;;;0.10;0.10;;;;;;;;;;5077610;28;20064;-72
2022/03/31 11:53:41;;;;;;;0.88;0.52;;;;;;;;;;5076489;28;20028;-72
2022/03/31 11:56:16;;;;;;;0.85;0.85;;;;;;;;;;5076031;28;20028;-72
2022/03/31 11:58:46;;;;;;;1.00;0.60;;;;;;;;;;5061229;28;20020;-72
2022/03/31 12:01:13;;;;;;;0.57;0.57;;;;;;;;;;5056751;28;20020;-73
2022/03/31 12:03:39;;;;;;;3.25;3.15;;;;;;;;;;5049200;28;20115;-72
2022/03/31 12:06:06;;;;;;;1.52;1.48;;;;;;;;;;5044660;28;20033;-71
2022/03/31 12:08:33;;;;;;;0.00;0.00;;;;;;;;;;5069003;28;20408;-72
2022/03/31 12:11:00;;;;;;;3.90;3.67;;;;;;;;;;5067427;28;20025;-71
2022/03/31 12:13:28;;;;;;;0.00;0.00;;;;;;;;;;5065369;28;20024;-72
2022/03/31 12:16:07;;;;;;;0.00;0.00;;;;;;;;;;5071548;28;20473;-71
2022/03/31 12:18:35;;;;;;;0.00;0.00;;;;;;;;;;5050482;28;20035;-73
2022/03/31 12:21:06;;;;;;;0.00;0.00;;;;;;;;;;5043163;28;20071;-72
2022/03/31 12:23:32;;;;;;;0.15;0.10;;;;;;;;;;5049666;28;20078;-73
2022/03/31 12:25:59;;;;;;;0.65;0.65;;;;;;;;;;5063550;28;20032;-72
2022/03/31 12:28:25;;;;;;;29.48;3.00;;;;;;;;;;5042989;28;20552;-72
2022/03/31 12:30:53;;;;;;;0.15;0.10;;;;;;;;;;5066165;28;20109;-73
2022/03/31 12:33:19;;;;;;;0.00;0.00;;;;;;;;;;5052980;28;20024;-73
2022/03/31 12:35:52;;;;;;;0.00;0.00;;;;;;;;;;5047252;28;20032;-73
2022/03/31 12:38:19;;;;;;;0.10;0.10;;;;;;;;;;5050523;28;20031;-73
2022/03/31 12:40:45;;;;;;;0.00;0.00;;;;;;;;;;5056775;28;20025;-75
2022/03/31 12:43:12;;;;;;;25.42;7.43;;;;;;;;;;5066364;28;20571;-76
2022/03/31 12:45:38;;;;;;;0.10;0.10;;;;;;;;;;5053842;28;20031;-75
2022/03/31 12:48:08;;;;;;;0.00;0.00;;;;;;;;;;5070458;28;20025;-75
2022/03/31 12:50:38;;;;;;;0.65;0.52;;;;;;;;;;5072678;28;20035;-76
2022/03/31 12:53:05;;;;;;;0.00;0.00;;;;;;;;;;5072534;28;20025;-75
2022/03/31 12:55:35;;;;;;;0.03;0.03;;;;;;;;;;5056479;28;20527;-74
2022/03/31 12:58:03;;;;;;;0.60;0.60;;;;;;;;;;5052692;28;20059;-76
2022/03/31 13:00:31;;;;;;;1.05;1.05;;;;;;;;;;5054189;28;20036;-76
2022/03/31 13:02:59;;;;;;;0.00;0.00;;;;;;;;;;5050828;28;20027;-76
2022/03/31 13:05:25;;;;;;;0.93;0.93;;;;;;;;;;5070702;28;20051;-76
2022/03/31 13:07:53;;;;;;;6.60;1.85;;;;;;;;;;5067784;28;20029;-76
2022/03/31 13:10:24;;;;;;;0.75;0.70;;;;;;;;;;5053510;28;20480;-75
2022/03/31 13:12:50;;;;;;;0.00;0.00;;;;;;;;;;5070073;28;20085;-76
2022/03/31 13:15:17;;;;;;;1.60;0.98;;;;;;;;;;5048661;28;20041;-76
2022/03/31 13:17:45;;;;;;;0.98;0.98;;;;;;;;;;5049067;28;20452;-76
2022/03/31 13:20:12;;;;;;;0.20;0.20;;;;;;;;;;5048705;28;20022;-76
2022/03/31 13:22:38;;;;;;;2.75;2.58;;;;;;;;;;5050192;28;20074;-76
2022/03/31 13:25:08;;;;;;;3.13;2.92;;;;;;;;;;5048579;28;20029;-76
2022/03/31 13:27:36;;;;;;;0.45;0.45;;;;;;;;;;5052217;28;20124;-76
2022/03/31 13:30:03;;;;;;;1.98;1.95;;;;;;;;;;5034000;28;20036;-77
2022/03/31 13:32:29;;;;;;;0.52;0.52;;;;;;;;;;5034228;28;20029;-75
2022/03/31 13:34:56;;;;;;;17.95;16.80;;;;;;;;;;5034222;28;20051;-75
2022/03/31 13:37:24;;;;;;;0.93;0.93;;;;;;;;;;5033226;28;20115;-75
2022/03/31 13:39:52;;;;;;;0.80;0.80;;;;;;;;;;5023278;28;20029;-76
2022/03/31 13:42:19;;;;;;;0.47;0.47;;;;;;;;;;5070885;28;20017;-75
2022/03/31 13:44:46;;;;;;;0.32;0.32;;;;;;;;;;5051430;28;20035;-75
2022/03/31 13:47:12;;;;;;;0.35;0.35;;;;;;;;;;5034653;28;20080;-75
2022/03/31 13:49:39;;;;;;;8.68;8.25;;;;;;;;;;5036321;28;20033;-75
2022/03/31 13:52:06;;;;;;;0.98;0.98;;;;;;;;;;5037314;28;20147;-76
2022/03/31 13:54:34;;;;;;;1.10;1.10;;;;;;;;;;5053535;28;20503;-75
2022/03/31 13:57:01;;;;;;;0.05;0.05;;;;;;;;;;5035824;28;20033;-77
2022/03/31 14:02:13;;;;;;;9.32;7.07;;;;;;;;;;5052679;28;20508;-75
2022/03/31 14:04:40;;;;;;;0.10;0.10;;;;;;;;;;5046577;28;20021;-75
2022/03/31 14:07:07;;;;;;;0.00;0.00;;;;;;;;;;5050366;28;20028;-77
2022/03/31 14:09:35;;;;;;;1.08;1.08;;;;;;;;;;5036080;28;20025;-76
2022/03/31 14:12:01;;;;;;;0.57;0.57;;;;;;;;;;5036989;28;20032;-77
2022/03/31 14:14:28;;;;;;;0.20;0.20;;;;;;;;;;5049049;28;20416;-74
2022/03/31 14:16:56;;;;;;;0.25;0.25;;;;;;;;;;5072629;28;20046;-74
2022/03/31 14:19:24;;;;;;;0.00;0.00;;;;;;;;;;5056462;28;20047;-74
2022/03/31 14:21:52;;;;;;;5.90;5.50;;;;;;;;;;5059762;28;20140;-76
2022/03/31 14:24:19;;;;;;;6.93;3.83;;;;;;;;;;5073799;28;20025;-75
2022/03/31 14:26:46;;;;;;;2.60;2.40;;;;;;;;;;5054823;28;20035;-75
2022/03/31 14:29:13;;;;;;;2.13;2.03;;;;;;;;;;5064340;28;20039;-75
2022/03/31 14:31:41;;;;;;;4.25;4.10;;;;;;;;;;5063666;28;20039;-74
2022/03/31 14:34:09;;;;;;;0.00;0.00;;;;;;;;;;5068056;28;20028;-74
2022/03/31 14:36:36;;;;;;;0.00;0.00;;;;;;;;;;5071981;28;20024;-74
2022/03/31 14:39:03;;;;;;;7.35;6.80;;;;;;;;;;5072575;28;20032;-76
2022/03/31 14:41:30;;;;;;;0.10;0.10;;;;;;;;;;5074133;28;20017;-76
2022/03/31 14:43:57;;;;;;;0.30;0.30;;;;;;;;;;5071519;28;20433;-74
2022/03/31 14:46:24;;;;;;;1.30;1.30;;;;;;;;;;5076729;28;20345;-75
2022/03/31 14:48:51;;;;;;;2.63;2.53;;;;;;;;;;5089448;28;20048;-76